createdAt,value
2023-03-13T00:02:16.773Z,85.63
2023-03-13T00:04:43.171Z,85.83
2023-03-13T00:07:09.547Z,85.60
2023-03-13T00:09:35.877Z,85.55
2023-03-13T00:12:02.422Z,85.55
2023-03-13T00:14:28.840Z,85.60
2023-03-13T00:16:55.220Z,85.51
2023-03-13T00:19:21.806Z,85.67
2023-03-13T00:21:48.365Z,85.56
2023-03-13T00:24:14.933Z,85.62
2023-03-13T00:26:41.257Z,85.63
2023-03-13T00:29:07.571Z,85.94
2023-03-13T00:31:34.025Z,85.86
2023-03-13T00:34:00.592Z,85.74
2023-03-13T00:36:27.168Z,85.64
2023-03-13T00:38:56.719Z,85.62
2023-03-13T00:41:23.817Z,85.74
2023-03-13T00:43:50.152Z,85.63
2023-03-13T00:46:16.607Z,85.65
2023-03-13T00:48:42.961Z,85.71
2023-03-13T00:51:09.295Z,85.67
2023-03-13T00:53:35.634Z,85.67
2023-03-13T00:56:01.968Z,85.64
2023-03-13T00:58:28.528Z,85.60
2023-03-13T01:00:54.861Z,85.67
2023-03-13T01:03:21.361Z,85.65
2023-03-13T01:05:47.751Z,85.65
2023-03-13T01:08:14.076Z,85.78
2023-03-13T01:10:40.423Z,85.67
2023-03-13T01:13:06.753Z,85.70
2023-03-13T01:15:33.130Z,85.67
2023-03-13T01:17:59.505Z,85.68
2023-03-13T01:20:25.830Z,85.67
2023-03-13T01:22:52.155Z,85.69
2023-03-13T01:25:18.518Z,85.74
2023-03-13T01:27:44.861Z,85.68
2023-03-13T01:30:11.194Z,85.88
2023-03-13T01:32:37.624Z,85.73
2023-03-13T01:35:04.010Z,85.70
2023-03-13T01:37:30.357Z,85.72
2023-03-13T01:39:56.685Z,85.72
2023-03-13T01:42:23.015Z,85.75
2023-03-13T01:44:49.360Z,85.74
2023-03-13T01:47:15.696Z,85.71
2023-03-13T01:49:42.055Z,85.74
2023-03-13T01:52:08.380Z,85.72
2023-03-13T01:54:34.938Z,85.68
2023-03-13T01:57:01.298Z,85.75
2023-03-13T01:59:27.874Z,85.72
2023-03-13T02:01:54.253Z,85.72
2023-03-13T02:04:20.829Z,85.73
2023-03-13T02:06:47.792Z,85.68
2023-03-13T02:09:14.119Z,85.72
2023-03-13T02:11:40.664Z,85.76
2023-03-13T02:14:06.988Z,85.89
2023-03-13T02:16:33.787Z,85.94
2023-03-13T02:19:00.143Z,85.79
2023-03-13T02:21:26.491Z,85.77
2023-03-13T02:23:53.033Z,85.80
2023-03-13T02:26:19.365Z,85.76
2023-03-13T02:28:45.922Z,85.75
2023-03-13T02:31:12.268Z,85.78
2023-03-13T02:33:38.652Z,85.81
2023-03-13T02:36:05.183Z,85.88
2023-03-13T02:38:31.540Z,85.92
2023-03-13T02:40:58.095Z,85.94
2023-03-13T02:43:24.437Z,85.89
2023-03-13T02:45:50.768Z,85.88
2023-03-13T02:48:17.100Z,85.91
2023-03-13T02:50:43.651Z,85.93
2023-03-13T02:53:09.979Z,85.97
2023-03-13T02:55:36.303Z,85.95
2023-03-13T02:58:02.636Z,85.99
2023-03-13T03:00:28.999Z,86.02
2023-03-13T03:02:55.585Z,86.00
2023-03-13T03:05:21.919Z,86.00
2023-03-13T03:07:48.258Z,86.05
2023-03-13T03:10:14.608Z,86.09
2023-03-13T03:12:40.938Z,86.07
2023-03-13T03:15:07.267Z,86.05
2023-03-13T03:17:33.588Z,86.07
2023-03-13T03:20:00.161Z,86.09
2023-03-13T03:22:26.480Z,86.08
2023-03-13T03:24:52.794Z,86.10
2023-03-13T03:27:19.122Z,86.05
2023-03-13T03:29:45.449Z,86.17
2023-03-13T03:32:11.782Z,86.20
2023-03-13T03:34:38.102Z,86.20
2023-03-13T03:37:04.648Z,86.20
2023-03-13T03:39:30.976Z,86.29
2023-03-13T03:41:57.345Z,86.27
2023-03-13T03:44:23.702Z,86.21
2023-03-13T03:46:50.095Z,86.21
2023-03-13T03:49:16.685Z,86.23
2023-03-13T03:51:43.045Z,86.32
2023-03-13T03:54:09.368Z,86.22
2023-03-13T03:56:35.708Z,86.14
2023-03-13T03:59:02.043Z,86.25
2023-03-13T04:01:28.393Z,86.21
2023-03-13T04:03:54.942Z,86.28
2023-03-13T04:06:21.327Z,86.26
2023-03-13T04:08:47.971Z,86.25
2023-03-13T04:11:14.324Z,86.34
2023-03-13T04:13:40.725Z,86.27
2023-03-13T04:16:07.277Z,86.26
2023-03-13T04:18:33.617Z,86.26
2023-03-13T04:21:00.165Z,86.27
2023-03-13T04:23:26.486Z,86.29
2023-03-13T04:25:52.807Z,86.25
2023-03-13T04:28:19.143Z,86.32
2023-03-13T04:30:45.544Z,86.37
2023-03-13T04:33:11.896Z,86.44
2023-03-13T04:35:38.388Z,86.30
2023-03-13T04:38:04.769Z,86.31
2023-03-13T04:40:31.103Z,86.31
2023-03-13T04:42:57.665Z,86.27
2023-03-13T04:45:23.983Z,86.30
2023-03-13T04:47:50.322Z,86.27
2023-03-13T04:50:16.679Z,86.32
2023-03-13T04:52:42.999Z,86.39
2023-03-13T04:55:09.335Z,86.36
2023-03-13T04:57:35.654Z,86.31
2023-03-13T05:00:02.217Z,86.25
2023-03-13T05:02:28.553Z,86.32
2023-03-13T05:04:54.935Z,86.29
2023-03-13T05:07:21.298Z,86.29
2023-03-13T05:09:47.654Z,86.31
2023-03-13T05:12:14.006Z,86.31
2023-03-13T05:14:40.345Z,86.40
2023-03-13T05:17:06.698Z,86.38
2023-03-13T05:19:33.045Z,86.32
2023-03-13T05:21:59.377Z,86.28
2023-03-13T05:24:25.712Z,86.36
2023-03-13T05:26:52.052Z,86.52
2023-03-13T05:29:18.624Z,86.45
2023-03-13T05:31:44.943Z,86.40
2023-03-13T05:34:11.284Z,86.37
2023-03-13T05:36:37.632Z,86.41
2023-03-13T05:39:04.051Z,86.47
2023-03-13T05:41:30.377Z,86.47
2023-03-13T05:43:56.703Z,86.43
2023-03-13T05:46:23.125Z,86.53
2023-03-13T05:48:49.534Z,86.50
2023-03-13T05:51:16.086Z,86.38
2023-03-13T05:53:42.416Z,86.46
2023-03-13T05:56:08.764Z,86.49
2023-03-13T05:58:35.097Z,86.48
2023-03-13T06:01:01.432Z,86.54
2023-03-13T06:03:27.819Z,86.50
2023-03-13T06:05:54.241Z,86.52
2023-03-13T06:08:21.801Z,86.48
2023-03-13T06:10:48.198Z,86.51
2023-03-13T06:13:20.116Z,86.47
2023-03-13T06:15:46.789Z,86.51
2023-03-13T06:18:13.120Z,86.47
2023-03-13T06:20:40.687Z,86.41
2023-03-13T06:23:08.615Z,86.40
2023-03-13T06:25:35.164Z,86.55
2023-03-13T06:28:01.505Z,86.59
2023-03-13T06:30:27.836Z,86.51
2023-03-13T06:32:54.267Z,86.52
2023-03-13T06:35:20.647Z,86.47
2023-03-13T06:37:47.224Z,86.48
2023-03-13T06:40:13.576Z,86.49
2023-03-13T06:42:39.920Z,86.54
2023-03-13T06:45:06.259Z,86.54
2023-03-13T06:47:32.592Z,86.48
2023-03-13T06:49:58.946Z,86.57
2023-03-13T06:52:37.417Z,86.62
2023-03-13T06:55:07.891Z,86.67
2023-03-13T06:57:34.229Z,86.70
2023-03-13T07:00:00.568Z,86.63
2023-03-13T07:02:26.906Z,86.58
2023-03-13T07:04:53.221Z,86.56
2023-03-13T07:07:31.257Z,86.56
2023-03-13T07:09:57.974Z,86.52
2023-03-13T07:12:24.522Z,86.54
2023-03-13T07:14:50.796Z,86.65
2023-03-13T07:17:17.147Z,86.62
2023-03-13T07:19:43.504Z,86.62
2023-03-13T07:22:09.838Z,86.58
2023-03-13T07:24:36.188Z,86.57
2023-03-13T07:27:07.436Z,86.58
2023-03-13T07:29:34.301Z,86.67
2023-03-13T07:32:00.691Z,86.78
2023-03-13T07:34:27.066Z,86.74
2023-03-13T07:36:53.406Z,86.65
2023-03-13T07:39:19.732Z,86.53
2023-03-13T07:41:46.069Z,86.58
2023-03-13T07:44:12.676Z,86.22
2023-03-13T07:46:39.007Z,86.56
2023-03-13T07:49:05.343Z,86.37
2023-03-13T07:51:42.942Z,86.47
2023-03-13T07:54:10.534Z,86.23
2023-03-13T07:56:36.946Z,86.51
2023-03-13T07:59:03.325Z,86.35
2023-03-13T08:01:31.102Z,86.47
2023-03-13T08:03:57.704Z,86.49
2023-03-13T08:06:24.034Z,86.53
2023-03-13T08:08:50.605Z,86.51
2023-03-13T08:11:16.934Z,86.64
2023-03-13T08:13:43.364Z,86.42
2023-03-13T08:16:10.077Z,86.45
2023-03-13T08:18:36.501Z,86.49
2023-03-13T08:21:02.834Z,86.23
2023-03-13T08:23:29.175Z,86.57
2023-03-13T08:25:55.504Z,86.54
2023-03-13T08:28:21.845Z,86.40
2023-03-13T08:30:48.188Z,86.42
2023-03-13T08:33:14.565Z,86.38
2023-03-13T08:35:40.940Z,86.28
2023-03-13T08:38:07.314Z,86.21
2023-03-13T08:40:33.657Z,86.30
2023-03-13T08:42:59.986Z,86.15
2023-03-13T08:45:26.319Z,86.12
2023-03-13T08:47:52.645Z,86.32
2023-03-13T08:50:18.974Z,86.32
2023-03-13T08:52:45.320Z,86.51
2023-03-13T08:55:11.872Z,86.27
2023-03-13T08:57:38.213Z,86.48
2023-03-13T09:00:04.544Z,86.30
2023-03-13T09:02:30.910Z,86.29
2023-03-13T09:04:57.247Z,86.43
2023-03-13T09:07:23.580Z,86.32
2023-03-13T09:09:49.894Z,86.30
2023-03-13T09:12:29.951Z,86.37
2023-03-13T09:14:56.961Z,86.53
2023-03-13T09:17:23.318Z,86.17
2023-03-13T09:19:59.653Z,86.24
2023-03-13T09:22:26.926Z,86.23
2023-03-13T09:24:53.246Z,86.41
2023-03-13T09:27:19.565Z,86.32
2023-03-13T09:29:45.896Z,86.54
2023-03-13T09:32:12.223Z,86.21
2023-03-13T09:34:38.553Z,86.38
2023-03-13T09:37:04.905Z,86.36
2023-03-13T09:39:31.468Z,86.30
2023-03-13T09:41:57.809Z,86.19
2023-03-13T09:44:24.176Z,86.26
2023-03-13T09:46:50.560Z,86.53
2023-03-13T09:49:18.406Z,86.44
2023-03-13T09:51:45.131Z,86.27
2023-03-13T09:54:11.455Z,86.36
2023-03-13T09:56:37.797Z,86.33
2023-03-13T09:59:04.130Z,88.12
2023-03-13T10:01:30.552Z,86.83
2023-03-13T10:03:56.930Z,86.40
2023-03-13T10:06:23.309Z,86.75
2023-03-13T10:08:49.725Z,86.30
2023-03-13T10:11:16.076Z,86.40
2023-03-13T10:13:42.400Z,86.67
2023-03-13T10:16:08.743Z,86.69
2023-03-13T10:18:35.075Z,86.81
2023-03-13T10:21:01.404Z,86.52
2023-03-13T10:23:27.968Z,86.48
2023-03-13T10:25:54.331Z,86.43
2023-03-13T10:28:20.688Z,86.80
2023-03-13T10:30:47.062Z,86.63
2023-03-13T10:33:13.397Z,86.47
2023-03-13T10:35:39.798Z,86.38
2023-03-13T10:38:06.171Z,86.29
2023-03-13T10:40:32.502Z,86.64
2023-03-13T10:42:58.784Z,86.81
2023-03-13T10:45:25.564Z,86.69
2023-03-13T10:47:51.946Z,86.59
2023-03-13T10:50:18.272Z,86.39
2023-03-13T10:52:44.605Z,86.38
2023-03-13T10:55:10.945Z,86.26
2023-03-13T10:57:37.292Z,85.33
2023-03-13T11:00:04.321Z,85.47
2023-03-13T11:02:30.834Z,85.47
2023-03-13T11:04:57.479Z,85.43
2023-03-13T11:07:23.957Z,85.47
2023-03-13T11:09:50.295Z,85.79
2023-03-13T11:12:16.703Z,86.10
2023-03-13T11:14:43.159Z,86.12
2023-03-13T11:17:09.510Z,86.06
2023-03-13T11:19:35.859Z,86.11
2023-03-13T11:22:02.251Z,86.03
2023-03-13T11:24:28.699Z,85.57
2023-03-13T11:27:04.263Z,85.59
2023-03-13T11:29:31.625Z,85.61
2023-03-13T11:31:58.052Z,85.52
2023-03-13T11:34:24.411Z,85.43
2023-03-13T11:36:50.755Z,85.31
2023-03-13T11:39:17.087Z,85.39
2023-03-13T11:41:43.733Z,85.31
2023-03-13T11:44:10.099Z,85.05
2023-03-13T11:46:36.572Z,85.00
2023-03-13T11:49:02.945Z,85.09
2023-03-13T11:51:29.344Z,84.91
2023-03-13T11:53:55.750Z,84.94
2023-03-13T11:56:22.110Z,85.03
2023-03-13T11:58:48.661Z,85.01
2023-03-13T12:01:15.120Z,85.06
2023-03-13T12:03:41.559Z,84.99
2023-03-13T12:06:15.902Z,84.84
2023-03-13T12:08:48.283Z,84.83
2023-03-13T12:11:14.603Z,84.78
2023-03-13T12:13:40.960Z,84.89
2023-03-13T12:16:07.369Z,84.95
2023-03-13T12:18:33.731Z,84.94
2023-03-13T12:21:00.117Z,84.88
2023-03-13T12:23:26.529Z,84.81
2023-03-13T12:25:52.991Z,84.77
2023-03-13T12:28:19.381Z,84.80
2023-03-13T12:30:45.806Z,84.93
2023-03-13T12:33:12.193Z,85.05
2023-03-13T12:35:38.523Z,85.14
2023-03-13T12:38:04.853Z,85.14
2023-03-13T12:40:31.414Z,84.98
2023-03-13T12:42:57.776Z,84.85
2023-03-13T12:45:24.211Z,84.84
2023-03-13T12:47:50.634Z,84.68
2023-03-13T12:50:16.966Z,84.54
2023-03-13T12:52:43.330Z,84.71
2023-03-13T12:55:09.657Z,84.75
2023-03-13T12:57:36.060Z,84.12
2023-03-13T13:00:02.424Z,83.83
2023-03-13T13:02:28.765Z,84.26
2023-03-13T13:04:55.098Z,84.25
2023-03-13T13:07:21.658Z,84.15
2023-03-13T13:09:47.994Z,84.22
2023-03-13T13:12:14.329Z,84.44
2023-03-13T13:14:40.669Z,84.59
2023-03-13T13:17:06.993Z,84.59
2023-03-13T13:19:33.322Z,85.10
2023-03-13T13:21:59.726Z,85.39
2023-03-13T13:24:26.112Z,84.44
2023-03-13T13:26:52.447Z,84.46
2023-03-13T13:29:19.007Z,84.64
2023-03-13T13:31:45.508Z,84.62
2023-03-13T13:34:11.948Z,84.54
2023-03-13T13:36:38.271Z,84.63
2023-03-13T13:39:04.617Z,84.75
2023-03-13T13:41:31.251Z,84.42
2023-03-13T13:43:57.620Z,84.52
2023-03-13T13:46:24.013Z,84.53
2023-03-13T13:48:50.538Z,84.73
2023-03-13T13:51:16.874Z,84.73
2023-03-13T13:53:43.207Z,84.95
2023-03-13T13:56:09.553Z,84.69
2023-03-13T13:58:35.883Z,84.58
2023-03-13T14:01:02.215Z,84.95
2023-03-13T14:03:28.545Z,84.95
2023-03-13T14:05:54.914Z,85.30
2023-03-13T14:08:21.266Z,85.23
2023-03-13T14:10:47.602Z,85.05
2023-03-13T14:13:13.944Z,85.28
2023-03-13T14:15:40.278Z,85.18
2023-03-13T14:18:06.611Z,85.21
2023-03-13T14:20:32.949Z,85.22
2023-03-13T14:23:01.394Z,85.11
2023-03-13T14:25:27.963Z,84.97
2023-03-13T14:27:54.395Z,85.07
2023-03-13T14:30:20.972Z,84.94
2023-03-13T14:32:47.379Z,84.88
2023-03-13T14:35:13.948Z,84.99
2023-03-13T14:37:40.320Z,84.90
2023-03-13T14:40:06.647Z,84.82
2023-03-13T14:42:32.987Z,84.96
2023-03-13T14:44:59.779Z,84.75
2023-03-13T14:47:26.402Z,84.92
2023-03-13T14:49:52.745Z,85.06
2023-03-13T14:52:19.070Z,84.80
2023-03-13T14:54:45.409Z,84.64
2023-03-13T14:57:11.864Z,85.16
2023-03-13T14:59:38.220Z,84.81
2023-03-13T15:02:04.587Z,84.93
2023-03-13T15:04:30.981Z,84.84
2023-03-13T15:06:57.343Z,85.06
2023-03-13T15:09:23.687Z,85.03
2023-03-13T15:11:50.022Z,85.10
2023-03-13T15:14:16.351Z,84.88
2023-03-13T15:16:42.720Z,84.90
2023-03-13T15:19:09.280Z,84.95
2023-03-13T15:21:35.619Z,85.10
2023-03-13T15:24:01.967Z,85.01
2023-03-13T15:26:28.330Z,84.83
2023-03-13T15:28:54.685Z,84.70
2023-03-13T15:31:21.064Z,84.90
2023-03-13T15:33:47.414Z,84.71
2023-03-13T15:36:14.061Z,84.63
2023-03-13T15:38:40.413Z,84.46
2023-03-13T15:41:06.765Z,84.78
2023-03-13T15:43:33.109Z,84.60
2023-03-13T15:45:59.500Z,84.56
2023-03-13T15:48:25.869Z,84.52
2023-03-13T15:50:52.207Z,84.45
2023-03-13T15:53:18.534Z,84.49
2023-03-13T15:55:44.861Z,84.54
2023-03-13T15:58:11.196Z,84.48
2023-03-13T16:00:37.527Z,84.48
2023-03-13T16:03:04.074Z,84.46
2023-03-13T16:05:30.389Z,84.33
2023-03-13T16:07:56.723Z,84.32
2023-03-13T16:10:25.197Z,84.31
2023-03-13T16:12:51.837Z,84.48
2023-03-13T16:15:18.391Z,84.28
2023-03-13T16:17:44.736Z,84.27
2023-03-13T16:20:11.068Z,84.22
2023-03-13T16:22:37.392Z,84.24
2023-03-13T16:25:03.724Z,84.21
2023-03-13T16:27:30.059Z,84.10
2023-03-13T16:29:56.394Z,84.11
2023-03-13T16:32:22.818Z,84.26
2023-03-13T16:34:49.182Z,84.81
2023-03-13T16:37:15.536Z,85.02
2023-03-13T16:39:41.875Z,85.44
2023-03-13T16:42:08.219Z,86.46
2023-03-13T16:44:34.551Z,86.55
2023-03-13T16:47:05.882Z,85.62
2023-03-13T16:49:32.832Z,84.57
2023-03-13T16:51:59.175Z,84.59
2023-03-13T16:54:25.506Z,84.74
2023-03-13T16:56:51.840Z,84.28
2023-03-13T16:59:18.203Z,84.32
2023-03-13T17:01:44.776Z,84.31
2023-03-13T17:04:11.124Z,84.59
2023-03-13T17:06:37.507Z,85.49
2023-03-13T17:09:03.846Z,86.04
2023-03-13T17:11:30.187Z,86.12
2023-03-13T17:13:56.518Z,85.14
2023-03-13T17:16:22.965Z,84.99
2023-03-13T17:18:49.575Z,85.97
2023-03-13T17:21:15.894Z,86.05
2023-03-13T17:23:42.234Z,86.29
2023-03-13T17:26:08.571Z,85.63
2023-03-13T17:28:34.937Z,85.93
2023-03-13T17:31:01.392Z,85.82
2023-03-13T17:33:27.727Z,86.20
2023-03-13T17:35:54.089Z,86.26
2023-03-13T17:38:20.442Z,86.36
2023-03-13T17:40:47.013Z,86.45
2023-03-13T17:43:13.346Z,86.56
2023-03-13T17:45:39.679Z,86.65
2023-03-13T17:48:06.005Z,86.53
2023-03-13T17:50:32.508Z,86.57
2023-03-13T17:52:58.841Z,86.67
2023-03-13T17:55:27.485Z,86.70
2023-03-13T17:57:53.974Z,86.81
2023-03-13T18:00:20.339Z,86.75
2023-03-13T18:02:46.906Z,86.72
2023-03-13T18:05:13.257Z,86.63
2023-03-13T18:07:39.579Z,86.71
2023-03-13T18:10:05.911Z,86.65
2023-03-13T18:12:32.234Z,86.72
2023-03-13T18:14:58.558Z,86.78
2023-03-13T18:17:24.884Z,86.75
2023-03-13T18:19:51.226Z,86.86
2023-03-13T18:22:17.565Z,86.95
2023-03-13T18:24:43.901Z,86.92
2023-03-13T18:27:10.221Z,86.82
2023-03-13T18:29:36.610Z,86.67
2023-03-13T18:32:02.950Z,86.75
2023-03-13T18:34:29.294Z,86.84
2023-03-13T18:36:55.627Z,86.86
2023-03-13T18:39:21.959Z,86.70
2023-03-13T18:41:48.298Z,86.75
2023-03-13T18:44:14.634Z,86.71
2023-03-13T18:46:41.203Z,86.96
2023-03-13T18:49:07.549Z,87.07
2023-03-13T18:51:33.899Z,87.15
2023-03-13T18:54:00.224Z,87.21
2023-03-13T18:56:26.545Z,87.26
2023-03-13T18:58:52.887Z,87.19
2023-03-13T19:01:19.237Z,87.07
2023-03-13T19:03:46.300Z,87.15
2023-03-13T19:06:12.632Z,87.09
2023-03-13T19:08:38.970Z,87.15
2023-03-13T19:11:05.540Z,87.06
2023-03-13T19:13:32.100Z,87.01
2023-03-13T19:15:58.437Z,87.03
2023-03-13T19:18:24.775Z,87.04
2023-03-13T19:20:51.121Z,86.97
2023-03-13T19:23:17.713Z,86.95
2023-03-13T19:25:44.087Z,87.00
2023-03-13T19:28:10.667Z,86.86
2023-03-13T19:30:36.989Z,86.82
2023-03-13T19:33:03.364Z,86.75
2023-03-13T19:35:29.792Z,86.64
2023-03-13T19:37:56.153Z,86.33
2023-03-13T19:40:22.542Z,86.66
2023-03-13T19:42:48.886Z,86.72
2023-03-13T19:45:15.220Z,86.70
2023-03-13T19:47:41.551Z,86.74
2023-03-13T19:50:07.881Z,86.74
2023-03-13T19:52:34.219Z,86.93
2023-03-13T19:55:01.086Z,87.02
2023-03-13T19:57:28.475Z,86.84
2023-03-13T19:59:56.564Z,86.86
2023-03-13T20:02:23.029Z,86.76
2023-03-13T20:04:49.368Z,86.49
2023-03-13T20:07:15.715Z,86.42
2023-03-13T20:09:42.066Z,86.34
2023-03-13T20:12:08.419Z,86.35
2023-03-13T20:14:34.756Z,86.47
2023-03-13T20:17:01.130Z,86.21
2023-03-13T20:19:27.460Z,86.30
2023-03-13T20:21:54.008Z,86.31
2023-03-13T20:24:20.342Z,86.27
2023-03-13T20:26:46.686Z,86.28
2023-03-13T20:29:13.254Z,86.24
2023-03-13T20:31:39.582Z,86.14
2023-03-13T20:34:06.123Z,86.26
2023-03-13T20:36:32.460Z,86.31
2023-03-13T20:38:59.199Z,86.35
2023-03-13T20:41:25.540Z,86.28
2023-03-13T20:43:51.868Z,86.29
2023-03-13T20:46:18.223Z,86.31
2023-03-13T20:48:44.584Z,86.30
2023-03-13T20:51:10.929Z,86.45
2023-03-13T20:53:37.289Z,86.45
2023-03-13T20:56:06.036Z,86.54
2023-03-13T20:58:33.308Z,86.46
2023-03-13T21:00:59.638Z,86.40
2023-03-13T21:03:25.954Z,86.50
2023-03-13T21:05:52.282Z,86.45
2023-03-13T21:08:18.627Z,86.20
2023-03-13T21:10:44.988Z,86.26
2023-03-13T21:13:11.327Z,86.36
2023-03-13T21:15:37.660Z,86.31
2023-03-13T21:18:03.944Z,86.53
2023-03-13T21:20:30.278Z,86.50
2023-03-13T21:22:56.622Z,86.76
2023-03-13T21:25:22.961Z,86.60
2023-03-13T21:27:49.299Z,86.80
2023-03-13T21:30:15.636Z,86.63
2023-03-13T21:32:41.991Z,86.73
2023-03-13T21:35:08.335Z,86.56
2023-03-13T21:37:34.672Z,86.29
2023-03-13T21:40:01.036Z,86.32
2023-03-13T21:42:27.371Z,86.19
2023-03-13T21:44:53.712Z,86.23
2023-03-13T21:47:20.062Z,86.53
2023-03-13T21:49:46.397Z,86.35
2023-03-13T21:52:12.732Z,86.23
2023-03-13T21:54:39.057Z,86.39
2023-03-13T21:57:05.401Z,86.29
2023-03-13T21:59:31.733Z,86.49
2023-03-13T22:01:58.078Z,86.39
2023-03-13T22:04:24.406Z,86.26
2023-03-13T22:06:50.746Z,86.47
2023-03-13T22:09:17.089Z,86.47
2023-03-13T22:11:43.413Z,86.30
2023-03-13T22:14:09.740Z,86.15
2023-03-13T22:16:36.079Z,86.13
2023-03-13T22:19:02.408Z,86.44
2023-03-13T22:21:28.783Z,86.17
2023-03-13T22:23:55.126Z,86.15
2023-03-13T22:26:21.455Z,86.20
2023-03-13T22:28:47.808Z,86.36
2023-03-13T22:31:14.138Z,86.30
2023-03-13T22:33:40.455Z,86.30
2023-03-13T22:36:06.847Z,86.27
2023-03-13T22:38:34.138Z,86.46
2023-03-13T22:41:00.681Z,86.23
2023-03-13T22:43:27.225Z,86.27
2023-03-13T22:45:53.559Z,86.31
2023-03-13T22:48:19.893Z,86.46
2023-03-13T22:50:46.229Z,86.79
2023-03-13T22:53:12.564Z,86.67
2023-03-13T22:55:38.890Z,86.60
2023-03-13T22:58:06.438Z,86.62
2023-03-13T23:00:32.759Z,86.70
2023-03-13T23:02:59.305Z,86.69
2023-03-13T23:05:25.639Z,86.72
2023-03-13T23:07:51.967Z,86.91
2023-03-13T23:10:18.518Z,86.94
2023-03-13T23:12:44.856Z,86.93
2023-03-13T23:15:11.441Z,86.89
2023-03-13T23:17:37.774Z,87.04
2023-03-13T23:20:04.118Z,86.97
2023-03-13T23:22:30.448Z,86.88
2023-03-13T23:24:56.785Z,86.81
2023-03-13T23:27:23.125Z,86.91
2023-03-13T23:29:49.474Z,86.98
2023-03-13T23:32:15.799Z,86.99
2023-03-13T23:34:42.131Z,87.22
2023-03-13T23:37:08.477Z,87.28
2023-03-13T23:39:34.824Z,87.13
2023-03-13T23:42:01.162Z,86.94
2023-03-13T23:44:27.482Z,86.68
2023-03-13T23:46:53.814Z,86.85
2023-03-13T23:49:20.145Z,86.67
2023-03-13T23:51:46.483Z,86.56
2023-03-13T23:54:12.819Z,86.65
2023-03-13T23:56:39.160Z,86.74
2023-03-13T23:59:05.507Z,86.29
